LDZD/ZAD METAR and TAF weather

Enter ICAO airport designator
Station Type Date Time Source
LDZD METAR 2020/04/03 07:00 UTC NOAA

LDZD 030700Z VRB04KT CAVOK 08/M01 Q1014 NOSIG


Station Type Date Time Source
LDZD Decoded METAR 2020/04/03 07:00 UTC NOAA

Zadar / Zemunik, Croatia (LDZD) 44-06N 015-21E
Apr 03, 2020 - 03:00 AM EDT / 2020.04.03 0700 UTC
Wind: Variable at 5 MPH (4 KT):0
Visibility: greater than 7 mile(s):0
Temperature: 46 F (8 C)
Dew Point: 30 F (-1 C)
Relative Humidity: 52%
Pressure (altimeter): 29.94 in. Hg (1014 hPa)
ob: LDZD 030700Z VRB04KT CAVOK 08/M01 Q1014 NOSIG
cycle: 7

Station Type Date Time Source
LDZD TAF 2020/04/03 06:30 UTC NOAA

TAF LDZD 030525Z 0306/0406 12005KT CAVOK TX15/0312Z TN03/0306Z
BECMG 0311/0313 28012KT
BECMG 0317/0319 35005KT
BECMG 0400/0402 04010KT

Example: see airport list